createdAt,value
2023-01-09T00:00:54.702Z,7.40
2023-01-09T00:07:09.579Z,6.60
2023-01-09T00:10:18.589Z,6.80
2023-01-09T00:13:27.191Z,7.20
2023-01-09T00:16:35.004Z,7.00
2023-01-09T00:19:43.880Z,7.50
2023-01-09T00:22:52.119Z,7.30
2023-01-09T00:26:09.215Z,7.50
2023-01-09T00:29:17.313Z,6.90
2023-01-09T00:32:25.720Z,7.60
2023-01-09T00:35:34.345Z,7.00
2023-01-09T00:38:43.596Z,8.00
2023-01-09T00:41:58.854Z,7.50
2023-01-09T00:45:15.512Z,7.50
2023-01-09T00:48:30.015Z,7.90
2023-01-09T00:51:38.755Z,7.80
2023-01-09T00:54:47.917Z,8.60
2023-01-09T00:57:56.816Z,8.00
2023-01-09T01:01:40.381Z,5.70
2023-01-09T01:05:06.551Z,7.90
2023-01-09T01:08:18.444Z,8.40
2023-01-09T01:11:26.680Z,8.20
2023-01-09T01:14:34.803Z,8.50
2023-01-09T01:17:44.464Z,8.30
2023-01-09T01:20:52.615Z,8.00
2023-01-09T01:24:00.471Z,8.90
2023-01-09T01:27:08.577Z,8.80
2023-01-09T01:30:19.361Z,8.30
2023-01-09T01:33:27.258Z,7.70
2023-01-09T01:36:35.777Z,8.50
2023-01-09T01:39:44.740Z,8.00
2023-01-09T01:42:58.779Z,7.90
2023-01-09T01:46:07.571Z,9.00
2023-01-09T01:49:21.411Z,7.80
2023-01-09T01:52:32.156Z,8.20
2023-01-09T01:55:53.303Z,8.00
2023-01-09T01:59:11.426Z,7.90
2023-01-09T02:02:21.564Z,7.70
2023-01-09T02:05:30.735Z,7.70
2023-01-09T02:08:39.727Z,8.30
2023-01-09T02:12:08.870Z,6.80
2023-01-09T02:15:19.856Z,7.30
2023-01-09T02:18:46.286Z,6.70
2023-01-09T02:22:08.703Z,6.70
2023-01-09T02:26:12.217Z,6.40
2023-01-09T02:29:51.249Z,6.50
2023-01-09T02:33:18.840Z,6.70
2023-01-09T02:36:40.187Z,6.30
2023-01-09T02:39:57.912Z,6.60
2023-01-09T02:43:07.948Z,6.40
2023-01-09T02:46:25.955Z,6.10
2023-01-09T02:49:36.269Z,6.20
2023-01-09T02:53:13.250Z,7.00
2023-01-09T02:56:48.615Z,6.60
2023-01-09T03:00:17.427Z,6.50
2023-01-09T03:03:37.353Z,6.10
2023-01-09T03:10:08.120Z,6.10
2023-01-09T03:13:21.351Z,6.10
2023-01-09T03:16:36.742Z,6.20
2023-01-09T03:19:48.243Z,6.60
2023-01-09T03:23:02.769Z,5.20
2023-01-09T03:26:15.823Z,6.00
2023-01-09T03:29:24.461Z,5.70
2023-01-09T03:32:32.554Z,6.00
2023-01-09T03:35:42.249Z,5.20
2023-01-09T03:38:51.731Z,5.60
2023-01-09T03:42:00.100Z,5.10
2023-01-09T03:45:10.197Z,5.30
2023-01-09T03:48:18.338Z,5.40
2023-01-09T03:51:26.416Z,5.90
2023-01-09T03:54:34.324Z,5.50
2023-01-09T03:57:42.803Z,6.00
2023-01-09T04:00:52.537Z,6.50
2023-01-09T04:04:00.560Z,6.10
2023-01-09T04:07:08.569Z,6.30
2023-01-09T04:10:17.535Z,6.30
2023-01-09T04:13:25.504Z,6.60
2023-01-09T04:16:33.294Z,6.90
2023-01-09T04:19:41.118Z,6.90
2023-01-09T04:22:49.159Z,6.60
2023-01-09T04:25:57.078Z,7.20
2023-01-09T04:29:05.061Z,7.30
2023-01-09T04:32:12.827Z,7.30
2023-01-09T04:35:21.183Z,7.40
2023-01-09T04:38:29.084Z,7.00
2023-01-09T04:41:52.501Z,7.50
2023-01-09T04:45:00.324Z,8.20
2023-01-09T04:48:08.979Z,8.50
2023-01-09T04:51:16.791Z,7.40
2023-01-09T04:54:25.501Z,7.50
2023-01-09T04:57:33.376Z,7.60
2023-01-09T05:00:41.346Z,7.30
2023-01-09T05:03:49.382Z,6.90
2023-01-09T05:06:57.170Z,7.50
2023-01-09T05:10:06.412Z,6.90
2023-01-09T05:13:14.256Z,6.80
2023-01-09T05:16:22.711Z,6.70
2023-01-09T05:19:30.594Z,7.30
2023-01-09T05:22:39.338Z,7.00
2023-01-09T05:25:47.302Z,7.50
2023-01-09T05:28:57.663Z,7.60
2023-01-09T05:32:05.703Z,7.30
2023-01-09T05:35:14.847Z,7.40
2023-01-09T05:38:22.691Z,7.40
2023-01-09T05:41:30.652Z,8.20
2023-01-09T05:44:39.178Z,8.30
2023-01-09T05:47:48.917Z,5.70
2023-01-09T05:50:56.994Z,9.40
2023-01-09T05:54:06.159Z,8.80
2023-01-09T05:57:14.401Z,8.90
2023-01-09T06:00:24.348Z,8.60
2023-01-09T06:06:40.044Z,8.50
2023-01-09T06:09:47.898Z,8.30
2023-01-09T06:12:56.048Z,9.20
2023-01-09T06:16:04.022Z,9.00
2023-01-09T06:19:11.912Z,8.80
2023-01-09T06:22:19.713Z,9.50
2023-01-09T06:25:27.584Z,9.30
2023-01-09T06:28:35.452Z,9.20
2023-01-09T06:31:44.170Z,10.10
2023-01-09T06:34:52.238Z,9.90
2023-01-09T06:38:03.164Z,10.00
2023-01-09T06:41:12.322Z,10.00
2023-01-09T06:44:20.290Z,11.00
2023-01-09T06:47:28.591Z,9.00
2023-01-09T06:50:36.775Z,10.90
2023-01-09T06:53:44.666Z,10.10
2023-01-09T06:56:52.974Z,11.70
2023-01-09T07:00:01.128Z,10.90
2023-01-09T07:03:09.621Z,10.50
2023-01-09T07:06:18.385Z,10.00
2023-01-09T07:09:26.107Z,10.80
2023-01-09T07:12:33.843Z,10.60
2023-01-09T07:15:42.072Z,10.00
2023-01-09T07:18:49.787Z,10.60
2023-01-09T07:21:57.471Z,10.50
2023-01-09T07:25:05.706Z,10.80
2023-01-09T07:28:13.565Z,10.40
2023-01-09T07:31:21.393Z,10.60
2023-01-09T07:34:29.472Z,10.40
2023-01-09T07:37:37.987Z,10.30
2023-01-09T07:40:45.819Z,10.20
2023-01-09T07:43:53.670Z,10.00
2023-01-09T07:47:01.817Z,10.00
2023-01-09T07:50:12.556Z,8.90
2023-01-09T07:53:20.456Z,8.50
2023-01-09T07:56:28.656Z,8.40
2023-01-09T07:59:36.513Z,6.10
2023-01-09T08:02:44.795Z,6.40
2023-01-09T08:05:52.442Z,7.10
2023-01-09T08:09:00.867Z,7.10
2023-01-09T08:12:09.599Z,7.20
2023-01-09T08:15:18.347Z,6.80
2023-01-09T08:18:26.522Z,8.20
2023-01-09T08:21:34.527Z,8.50
2023-01-09T08:24:42.662Z,7.80
2023-01-09T08:27:50.459Z,10.10
2023-01-09T08:30:58.557Z,10.20
2023-01-09T08:34:06.509Z,10.80
2023-01-09T08:37:14.638Z,11.40
2023-01-09T08:40:23.064Z,12.00
2023-01-09T08:43:49.114Z,9.70
2023-01-09T08:47:09.535Z,9.30
2023-01-09T08:50:17.917Z,9.50
2023-01-09T08:53:26.021Z,8.30
2023-01-09T08:56:34.254Z,12.20
2023-01-09T08:59:42.179Z,11.00
2023-01-09T09:02:54.213Z,10.90
2023-01-09T09:06:02.143Z,12.20
2023-01-09T09:09:10.293Z,11.40
2023-01-09T09:12:18.261Z,10.50
2023-01-09T09:15:27.871Z,10.90
2023-01-09T09:18:35.727Z,11.20
2023-01-09T09:21:43.831Z,11.00
2023-01-09T09:24:51.682Z,9.20
2023-01-09T09:28:01.256Z,10.90
2023-01-09T09:31:11.247Z,12.00
2023-01-09T09:37:26.880Z,10.40
2023-01-09T09:41:38.875Z,11.80
2023-01-09T09:45:14.005Z,12.50
2023-01-09T09:48:37.602Z,11.80
2023-01-09T09:52:11.054Z,9.10
2023-01-09T09:55:27.213Z,8.60
2023-01-09T09:58:41.028Z,12.40
2023-01-09T10:01:59.994Z,12.20
2023-01-09T10:05:16.791Z,11.50
2023-01-09T10:08:39.639Z,13.10
2023-01-09T10:11:56.999Z,11.10
2023-01-09T10:15:17.062Z,12.30
2023-01-09T10:18:37.152Z,11.20
2023-01-09T10:21:55.465Z,10.50
2023-01-09T10:25:22.819Z,9.70
2023-01-09T10:28:58.135Z,9.50
2023-01-09T10:32:28.593Z,9.20
2023-01-09T10:36:17.124Z,11.60
2023-01-09T10:39:30.601Z,10.90
2023-01-09T10:42:45.354Z,12.10
2023-01-09T10:46:00.395Z,12.20
2023-01-09T10:49:14.018Z,11.10
2023-01-09T10:52:26.791Z,12.40
2023-01-09T10:55:44.665Z,11.30
2023-01-09T10:58:54.057Z,11.50
2023-01-09T11:02:02.589Z,9.30
2023-01-09T11:05:16.710Z,10.40
2023-01-09T11:08:35.287Z,8.00
2023-01-09T11:11:45.811Z,9.10
2023-01-09T11:14:53.956Z,8.10
2023-01-09T11:18:24.680Z,8.70
2023-01-09T11:21:39.333Z,8.70
2023-01-09T11:24:59.038Z,11.00
2023-01-09T11:28:12.787Z,11.70
2023-01-09T11:31:26.507Z,11.80
2023-01-09T11:34:39.248Z,12.80
2023-01-09T11:37:48.584Z,12.80
2023-01-09T11:40:59.989Z,12.60
2023-01-09T11:44:15.711Z,11.80
2023-01-09T11:47:43.327Z,12.10
2023-01-09T11:51:01.580Z,12.80
2023-01-09T11:54:27.290Z,11.80
2023-01-09T11:57:35.802Z,13.40
2023-01-09T12:00:55.061Z,12.10
2023-01-09T12:04:28.844Z,13.30
2023-01-09T12:07:59.088Z,12.50
2023-01-09T12:11:26.384Z,11.90
2023-01-09T12:14:52.732Z,12.30
2023-01-09T12:18:51.737Z,12.90
2023-01-09T12:22:14.752Z,11.30
2023-01-09T12:25:46.063Z,11.10
2023-01-09T12:29:26.933Z,10.40
2023-01-09T12:32:55.160Z,11.30
2023-01-09T12:36:16.227Z,11.60
2023-01-09T12:39:36.993Z,11.90
2023-01-09T12:42:59.662Z,11.50
2023-01-09T12:46:20.478Z,13.00
2023-01-09T12:49:36.457Z,11.50
2023-01-09T12:52:55.153Z,11.30
2023-01-09T12:56:10.385Z,11.40
2023-01-09T12:59:32.978Z,9.60
2023-01-09T13:03:00.405Z,9.80
2023-01-09T13:06:20.622Z,12.10
2023-01-09T13:09:39.962Z,12.20
2023-01-09T13:12:51.539Z,13.00
2023-01-09T13:16:03.775Z,12.60
2023-01-09T13:19:19.811Z,14.40
2023-01-09T13:22:31.555Z,15.10
2023-01-09T13:25:48.414Z,14.20
2023-01-09T13:29:04.398Z,13.90
2023-01-09T13:32:51.602Z,14.30
2023-01-09T13:36:03.132Z,14.90
2023-01-09T13:39:23.212Z,14.10
2023-01-09T13:42:39.319Z,15.40
2023-01-09T13:45:54.300Z,14.70
2023-01-09T13:49:03.800Z,16.20
2023-01-09T13:52:38.244Z,15.60
2023-01-09T13:56:09.848Z,15.30
2023-01-09T13:59:31.545Z,16.60
2023-01-09T14:03:15.375Z,15.20
2023-01-09T14:06:24.562Z,14.00
2023-01-09T14:09:32.900Z,19.20
2023-01-09T14:12:46.558Z,19.60
2023-01-09T14:16:03.119Z,17.30
2023-01-09T14:19:32.065Z,18.90
2023-01-09T14:22:50.390Z,15.60
2023-01-09T14:26:06.715Z,16.80
2023-01-09T14:29:45.706Z,17.60
2023-01-09T14:33:01.726Z,17.90
2023-01-09T14:36:21.930Z,18.80
2023-01-09T14:39:33.153Z,17.30
2023-01-09T14:42:45.936Z,18.20
2023-01-09T14:46:00.922Z,17.00
2023-01-09T14:49:24.314Z,18.40
2023-01-09T14:52:38.626Z,18.80
2023-01-09T14:55:54.615Z,21.70
2023-01-09T14:59:16.777Z,21.30
2023-01-09T15:02:28.168Z,20.40
2023-01-09T15:05:37.901Z,16.50
2023-01-09T15:08:52.468Z,15.20
2023-01-09T15:12:08.032Z,14.60
2023-01-09T15:15:19.501Z,13.00
2023-01-09T15:18:33.992Z,12.40
2023-01-09T15:21:42.139Z,13.00
2023-01-09T15:24:50.313Z,13.20
2023-01-09T15:28:00.671Z,11.30
2023-01-09T15:31:17.294Z,12.20
2023-01-09T15:34:28.821Z,11.90
2023-01-09T15:37:40.663Z,11.50
2023-01-09T15:40:55.485Z,11.90
2023-01-09T15:44:04.341Z,10.90
2023-01-09T15:47:21.017Z,11.50
2023-01-09T15:50:32.229Z,10.70
2023-01-09T15:53:41.417Z,11.00
2023-01-09T15:56:49.418Z,10.60
2023-01-09T15:59:58.920Z,9.00
2023-01-09T16:03:21.495Z,10.40
2023-01-09T16:06:32.535Z,11.20
2023-01-09T16:09:40.370Z,12.80
2023-01-09T16:12:51.727Z,13.40
2023-01-09T16:16:04.113Z,14.20
2023-01-09T16:19:34.434Z,17.60
2023-01-09T16:22:57.062Z,13.50
2023-01-09T16:26:13.837Z,11.70
2023-01-09T16:29:40.700Z,11.70
2023-01-09T16:32:52.835Z,10.70
2023-01-09T16:36:02.772Z,11.40
2023-01-09T16:39:16.139Z,11.20
2023-01-09T16:42:48.541Z,11.40
2023-01-09T16:45:56.329Z,11.30
2023-01-09T16:49:04.611Z,12.20
2023-01-09T16:52:19.471Z,13.10
2023-01-09T16:55:27.547Z,12.20
2023-01-09T16:58:38.199Z,12.80
2023-01-09T17:01:46.253Z,11.40
2023-01-09T17:04:55.331Z,12.90
2023-01-09T17:08:03.101Z,13.20
2023-01-09T17:11:20.147Z,13.50
2023-01-09T17:14:29.042Z,14.50
2023-01-09T17:17:37.091Z,13.80
2023-01-09T17:20:47.579Z,13.80
2023-01-09T17:24:09.646Z,12.60
2023-01-09T17:27:35.370Z,11.80
2023-01-09T17:30:43.344Z,11.80
2023-01-09T17:33:51.196Z,11.60
2023-01-09T17:36:59.034Z,12.10
2023-01-09T17:40:13.780Z,11.80
2023-01-09T17:43:21.618Z,12.10
2023-01-09T17:46:33.986Z,12.40
2023-01-09T17:49:42.471Z,13.00
2023-01-09T17:52:51.370Z,12.50
2023-01-09T17:56:01.292Z,14.90
2023-01-09T17:59:09.632Z,18.10
2023-01-09T18:02:22.234Z,20.10
2023-01-09T18:05:30.211Z,17.80
2023-01-09T18:08:38.627Z,18.70
2023-01-09T18:11:48.419Z,16.40
2023-01-09T18:14:56.796Z,14.80
2023-01-09T18:18:05.133Z,17.10
2023-01-09T18:21:18.366Z,14.70
2023-01-09T18:24:26.962Z,14.10
2023-01-09T18:27:36.854Z,15.40
2023-01-09T18:30:45.685Z,14.80
2023-01-09T18:33:54.936Z,15.20
2023-01-09T18:37:04.902Z,15.70
2023-01-09T18:40:15.538Z,14.60
2023-01-09T18:43:23.434Z,15.40
2023-01-09T18:46:32.473Z,14.90
2023-01-09T18:49:41.366Z,15.60
2023-01-09T18:52:49.164Z,15.80
2023-01-09T18:55:57.979Z,15.30
2023-01-09T18:59:07.246Z,15.50
2023-01-09T19:02:24.498Z,13.60
2023-01-09T19:05:35.102Z,12.80
2023-01-09T19:08:44.478Z,13.60
2023-01-09T19:11:52.522Z,13.40
2023-01-09T19:15:01.621Z,12.50
2023-01-09T19:18:10.568Z,13.40
2023-01-09T19:21:22.662Z,14.00
2023-01-09T19:24:32.974Z,13.50
2023-01-09T19:27:41.150Z,12.30
2023-01-09T19:30:55.057Z,12.30
2023-01-09T19:34:03.376Z,11.70
2023-01-09T19:37:11.388Z,14.70
2023-01-09T19:40:20.207Z,13.00
2023-01-09T19:43:28.292Z,14.90
2023-01-09T19:46:38.275Z,15.10
2023-01-09T19:49:46.528Z,13.30
2023-01-09T19:52:56.552Z,12.60
2023-01-09T19:56:17.148Z,11.90
2023-01-09T19:59:25.897Z,10.00
2023-01-09T20:02:33.755Z,10.00
2023-01-09T20:05:41.754Z,10.60
2023-01-09T20:08:53.795Z,10.20
2023-01-09T20:12:04.070Z,8.40
2023-01-09T20:15:14.981Z,7.70
2023-01-09T20:18:24.214Z,7.50
2023-01-09T20:21:33.270Z,8.00
2023-01-09T20:24:41.455Z,6.90
2023-01-09T20:27:49.467Z,7.80
2023-01-09T20:30:57.625Z,8.20
2023-01-09T20:34:05.944Z,7.10
2023-01-09T20:37:14.250Z,7.40
2023-01-09T20:40:22.544Z,7.60
2023-01-09T20:43:30.643Z,7.70
2023-01-09T20:46:41.953Z,8.30
2023-01-09T20:49:50.139Z,8.00
2023-01-09T20:52:58.596Z,7.90
2023-01-09T20:56:10.005Z,7.30
2023-01-09T20:59:22.130Z,8.00
2023-01-09T21:02:30.943Z,7.70
2023-01-09T21:05:43.177Z,9.20
2023-01-09T21:08:53.261Z,8.20
2023-01-09T21:12:00.989Z,6.60
2023-01-09T21:15:15.355Z,6.90
2023-01-09T21:18:23.507Z,7.30
2023-01-09T21:21:31.948Z,6.10
2023-01-09T21:24:40.091Z,6.90
2023-01-09T21:27:49.754Z,6.00
2023-01-09T21:30:57.602Z,6.60
2023-01-09T21:34:07.825Z,6.40
2023-01-09T21:37:16.828Z,7.10
2023-01-09T21:40:24.753Z,8.70
2023-01-09T21:43:51.221Z,8.80
2023-01-09T21:46:59.853Z,9.60
2023-01-09T21:50:09.641Z,9.50
2023-01-09T21:53:18.212Z,8.60
2023-01-09T21:56:26.702Z,8.90
2023-01-09T21:59:35.636Z,8.40
2023-01-09T22:02:44.068Z,8.00
2023-01-09T22:05:52.138Z,8.90
2023-01-09T22:09:00.591Z,8.70
2023-01-09T22:12:10.461Z,8.80
2023-01-09T22:18:25.190Z,8.30
2023-01-09T22:21:33.756Z,8.90
2023-01-09T22:24:41.915Z,8.40
2023-01-09T22:27:50.561Z,8.00
2023-01-09T22:30:58.962Z,7.10
2023-01-09T22:34:07.498Z,7.40
2023-01-09T22:37:15.864Z,6.60
2023-01-09T22:40:24.564Z,6.30
2023-01-09T22:43:32.841Z,6.90
2023-01-09T22:46:41.237Z,7.40
2023-01-09T22:49:53.337Z,5.80
2023-01-09T22:53:01.518Z,6.00
2023-01-09T22:56:14.942Z,6.50
2023-01-09T22:59:23.066Z,6.80
2023-01-09T23:02:31.517Z,6.50
2023-01-09T23:05:39.680Z,5.10
2023-01-09T23:08:49.505Z,5.70
2023-01-09T23:15:14.552Z,5.40
2023-01-09T23:18:23.200Z,5.70
2023-01-09T23:21:31.703Z,5.50
2023-01-09T23:24:39.732Z,6.30
2023-01-09T23:27:47.934Z,5.60
2023-01-09T23:30:56.243Z,5.30
2023-01-09T23:34:05.315Z,5.30
2023-01-09T23:37:13.430Z,5.60
2023-01-09T23:40:21.860Z,5.60
2023-01-09T23:43:29.916Z,5.40
2023-01-09T23:46:38.221Z,5.30
2023-01-09T23:49:46.383Z,5.40
2023-01-09T23:52:54.816Z,5.10
2023-01-09T23:56:03.576Z,5.00
2023-01-09T23:59:13.389Z,5.20
